Flight Track Log - Related Links

Times and Time Zones

All times are in EDT time to prevent confusion due to time zone crossing. See the P2-NAX flight status page for this flight to view local times or setup timezone preferences in your user account.

Time Position Orientation Groundspeed Altitude Reporting Facility
EDT Latitude Longitude Course Direction KTS MPH feet Rate Location/Type
Wed 02:34:00 AM -6.2892 141.6072 159° South  Level Estimated
Wed 02:35:00 AM -6.3217 141.6195 159° South  Level Estimated
Wed 02:36:00 AM -6.3543 141.6318 159° South  Level Estimated
Wed 02:37:00 AM -6.3869 141.6441 159° South  Level Estimated
Wed 02:38:00 AM -6.4195 141.6565 159° South  Level Estimated
Wed 02:39:00 AM -6.4521 141.6688 159° South  Level Estimated
Wed 02:40:00 AM -6.4847 141.6811 159° South  Level Estimated
Wed 02:41:00 AM -6.5173 141.6935 159° South  Level Estimated
Wed 02:42:00 AM -6.5499 141.7058 159° South  Level Estimated
Wed 02:43:00 AM -6.5825 141.7182 159° South  Level Estimated
Wed 02:44:00 AM -6.6151 141.7305 159° South  Level Estimated
Wed 02:45:00 AM -6.6477 141.7428 159° South  Level Estimated
Wed 02:46:00 AM -6.6803 141.7552 159° South  Level Estimated
Wed 02:47:00 AM -6.7128 141.7675 159° South  Level Estimated
Wed 02:48:00 AM -6.7454 141.7799 159° South  Level Estimated
Wed 02:49:00 AM -6.7780 141.7922 159° South  Level Estimated
Wed 02:50:00 AM -6.8106 141.8046 159° South  Level Estimated
Wed 02:51:00 AM -6.8432 141.8169 159° South  Level Estimated
Wed 02:52:00 AM -6.8758 141.8293 159° South  Level Estimated
Wed 02:53:00 AM -6.9084 141.8416 159° South  Level Estimated
Wed 02:54:00 AM -6.9410 141.8540 159° South  Level Estimated
Wed 02:55:00 AM -6.9735 141.8663 159° South  Level Estimated
Wed 02:56:00 AM -7.0061 141.8787 159° South  Level Estimated
Wed 02:57:00 AM -7.0387 141.8910 159° South  Level Estimated
Wed 02:58:00 AM -7.0713 141.9034 159° South  Level Estimated
Wed 02:59:00 AM -7.1039 141.9158 159° South  Level Estimated
Wed 03:00:00 AM -7.1365 141.9281 159° South  Level Estimated
Wed 03:01:00 AM -7.1691 141.9405 159° South  Level Estimated
Wed 03:02:00 AM -7.2017 141.9529 159° South  Level Estimated
Wed 03:03:00 AM -7.2342 141.9652 159° South  Level Estimated
Wed 03:04:00 AM -7.2668 141.9776 159° South  Level Estimated
Wed 03:05:00 AM -7.2994 141.9900 159° South  Level Estimated
Wed 03:06:00 AM -7.3320 142.0024 159° South  Level Estimated
Wed 03:07:00 AM -7.3646 142.0148 159° South  Level Estimated
Wed 03:08:00 AM -7.3972 142.0271 159° South  Level Estimated
Wed 03:09:00 AM -7.4297 142.0395 159° South  Level Estimated
Wed 03:10:00 AM -7.4623 142.0519 159° South  Level Estimated
Wed 03:11:00 AM -7.4949 142.0643 159° South  Level Estimated
Wed 03:12:00 AM -7.5275 142.0767 159° South  Level Estimated
Wed 03:13:00 AM -7.5601 142.0891 159° South  Level Estimated
Wed 03:14:00 AM -7.5926 142.1015 159° South  Level Estimated
Wed 03:15:00 AM -7.6252 142.1138 159° South  Level Estimated
Wed 03:15:01 AM -9.4185 143.3146 163° South 23,000  Level Aus ATC (Calculated)
Wed 03:17:00 AM -9.4857 143.3363 162° South  Level FlightAware Approximate
Wed 03:17:06 AM -9.5014 143.3414 163° South 23,000  Level Aus ATC (Calculated)
Wed 03:17:15 AM -9.5014 143.3414 163° South 23,000 Level Aus ATC (Calculated)
Wed 03:18:22 AM -9.5635 143.3614 163° South 23,000 Level Aus ATC (Calculated)
Wed 03:18:52 AM -9.5635 143.3614 163° South 23,000 Level Aus ATC (Calculated)
Wed 03:20:00 AM -9.6013 143.3736 162° South  Level FlightAware Approximate
Wed 03:21:00 AM -9.6347 143.3844 162° South  Level FlightAware Approximate
Wed 03:22:00 AM -9.6680 143.3952 162° South  Level FlightAware Approximate
Wed 03:23:00 AM -9.7014 143.4060 162° South  Level FlightAware Approximate
Wed 03:24:00 AM -9.7347 143.4167 162° South  Level FlightAware Approximate
Wed 03:25:00 AM -9.7681 143.4275 162° South  Level FlightAware Approximate
Wed 03:26:00 AM -9.7347 143.4167 342° North  Level FlightAware Approximate
Wed 03:26:00 AM -10.0318 143.5094 163° South 23,000  Level Aus ATC (Calculated)
Wed 03:27:00 AM -10.0652 143.5199 163° South  Level FlightAware Approximate
Wed 03:28:00 AM -10.0987 143.5303 163° South  Level FlightAware Approximate
Wed 03:29:00 AM -10.1322 143.5408 163° South  Level FlightAware Approximate
Wed 03:30:00 AM -10.1656 143.5512 163° South  Level FlightAware Approximate
Wed 03:31:00 AM -10.1991 143.5616 163° South  Level FlightAware Approximate
Wed 03:31:10 AM -10.3840 143.6194 163° South 23,000  Level Aus ATC (Calculated)
Wed 03:32:00 AM -10.2325 143.5721 163° South  Level FlightAware Approximate
Wed 03:33:00 AM -10.4453 143.6385 163° South  Level FlightAware Approximate
Wed 03:34:00 AM -10.4788 143.6490 163° South  Level FlightAware Approximate
Wed 03:35:00 AM -10.5122 143.6595 163° South  Level FlightAware Approximate
Wed 03:36:00 AM -10.5457 143.6699 163° South  Level FlightAware Approximate
Wed 03:37:00 AM -10.5791 143.6804 163° South  Level FlightAware Approximate
Wed 03:38:00 AM -10.6126 143.6909 163° South  Level FlightAware Approximate
Wed 03:39:00 AM -10.6460 143.7013 163° South  Level FlightAware Approximate
Wed 03:40:00 AM -10.6795 143.7118 163° South  Level FlightAware Approximate
Wed 03:41:00 AM -10.7129 143.7223 163° South  Level FlightAware Approximate
Wed 03:42:00 AM -10.7464 143.7328 163° South  Level FlightAware Approximate
Wed 03:43:00 AM -10.7799 143.7433 163° South  Level FlightAware Approximate
Wed 03:44:00 AM -10.8133 143.7537 163° South  Level FlightAware Approximate
Wed 03:45:00 AM -10.8468 143.7642 163° South  Level FlightAware Approximate
Wed 03:46:00 AM -10.8802 143.7747 163° South  Level FlightAware Approximate
Wed 03:47:00 AM -10.9137 143.7852 163° South  Level FlightAware Approximate
Wed 03:48:00 AM -10.9471 143.7957 163° South  Level FlightAware Approximate
Wed 03:49:00 AM -10.9806 143.8062 163° South  Level FlightAware Approximate
Wed 03:50:00 AM -11.0140 143.8167 163° South  Level FlightAware Approximate
Wed 03:51:00 AM -11.0475 143.8272 163° South  Level FlightAware Approximate
Wed 03:52:00 AM -11.0809 143.8377 163° South  Level FlightAware Approximate
Wed 03:53:00 AM -11.1144 143.8482 163° South  Level FlightAware Approximate
Wed 03:54:00 AM -11.1478 143.8587 163° South  Level FlightAware Approximate
Wed 03:54:48 AM -11.8626 144.0838 163° South 23,000  Level Aus ATC (Calculated)
Wed 03:55:00 AM -11.1813 143.8692 163° South  Level FlightAware Approximate
Wed 03:56:00 AM -11.9027 144.0965 163° South  Level FlightAware Approximate
Wed 03:57:00 AM -11.9361 144.1071 163° South  Level FlightAware Approximate
Wed 03:58:00 AM -11.9696 144.1177 163° South  Level FlightAware Approximate
Wed 03:59:00 AM -12.0030 144.1282 163° South  Level FlightAware Approximate
Wed 04:00:00 AM -12.0364 144.1388 163° South  Level FlightAware Approximate
Wed 04:01:00 AM -12.0699 144.1495 163° South  Level FlightAware Approximate
Wed 04:02:00 AM -12.3120 144.2265 163° South 23,000  Level Aus ATC (Calculated)
Wed 04:02:00 AM -12.1033 144.1601 163° South  Level FlightAware Approximate
Wed 04:02:16 AM -12.3120 144.2265 163° South 23,000  Level Aus ATC (Calculated)
Wed 04:03:00 AM -12.3455 144.2371 163° South  Level FlightAware Approximate
Wed 04:04:00 AM -12.3694 144.2447 163° South  Level FlightAware Approximate
Wed 04:05:00 AM -12.4024 144.2552 163° South  Level FlightAware Approximate
Wed 04:06:00 AM -12.4355 144.2658 163° South  Level FlightAware Approximate
Wed 04:07:00 AM -12.4686 144.2763 163° South  Level FlightAware Approximate
Wed 04:08:00 AM -12.5017 144.2868 163° South  Level FlightAware Approximate
Wed 04:08:58 AM -12.7750 144.3741 163° South 23,000  Level Aus ATC (Calculated)
Wed 04:09:00 AM -12.5347 144.2974 163° South  Level FlightAware Approximate
Wed 04:10:00 AM -12.8092 144.3850 163° South  Level FlightAware Approximate
Wed 04:11:00 AM -12.8423 144.3955 163° South  Level FlightAware Approximate
Wed 04:12:00 AM -12.8753 144.4061 163° South  Level FlightAware Approximate
Wed 04:13:00 AM -12.9084 144.4167 163° South  Level FlightAware Approximate
Wed 04:14:00 AM -12.9415 144.4272 163° South  Level FlightAware Approximate
Wed 04:15:00 AM -12.9745 144.4378 163° South  Level FlightAware Approximate
Wed 04:16:00 AM -13.0076 144.4484 163° South  Level FlightAware Approximate
Wed 04:17:00 AM -13.0407 144.4590 163° South  Level FlightAware Approximate
Wed 04:18:00 AM -13.0737 144.4696 163° South  Level FlightAware Approximate
Wed 04:19:00 AM -13.1068 144.4802 163° South  Level FlightAware Approximate
Wed 04:20:00 AM -13.1399 144.4908 163° South  Level FlightAware Approximate
Wed 04:21:00 AM -13.1729 144.5014 163° South  Level FlightAware Approximate
Wed 04:22:00 AM -13.2060 144.5120 163° South  Level FlightAware Approximate
Wed 04:23:00 AM -13.2391 144.5226 163° South  Level FlightAware Approximate
Wed 04:24:00 AM -13.2721 144.5332 163° South  Level FlightAware Approximate
Wed 04:25:00 AM -13.3052 144.5438 163° South  Level FlightAware Approximate
Wed 04:25:36 AM -13.5778 144.6324 163° South 267 307 23,100  Level Aus ATC (RADAR)
Wed 04:25:51 AM -13.5934 144.6416 150° Southeast 253 291 23,100  Level Aus ATC (RADAR)
Wed 04:26:21 AM -13.6271 144.6524 163° South 251 289 23,100  Level Aus ATC (RADAR)
Wed 04:27:06 AM -13.6777 144.6678 164° South 251 289 23,100  Level Aus ATC (RADAR)
Wed 04:28:06 AM -13.7463 144.6872 165° South 253 291 23,100  Level Aus ATC (RADAR)
Wed 04:28:46 AM -13.7912 144.7033 161° South 254 292 23,100  Level Aus ATC (RADAR)
Wed 04:29:41 AM -13.8533 144.7236 162° South 255 293 23,100  Level Aus ATC (RADAR)
Wed 04:30:41 AM -13.9221 144.7435 164° South 254 292 23,100  Level Aus ATC (RADAR)
Wed 04:31:11 AM -13.9565 144.7526 166° South 254 292 23,100  Level Aus ATC (RADAR)
Wed 04:32:15 AM -14.0301 144.7790 161° South 257 296 23,100  Level Aus ATC (RADAR)
Wed 04:32:45 AM -14.0643 144.7911 161° South 258 297 23,100  Level Aus ATC (RADAR)
Wed 04:33:40 AM -14.1270 144.8113 163° South 256 295 23,100  Level Aus ATC (RADAR)
Wed 04:35:15 AM -14.2360 144.8448 163° South 258 297 23,100  Level Aus ATC (RADAR)
Wed 04:35:35 AM -14.2590 144.8529 161° South 259 298 23,100  Level Aus ATC (RADAR)
Wed 04:36:15 AM -14.3053 144.8665 164° South 259 298 23,100  Level Aus ATC (RADAR)
Wed 04:37:20 AM -14.3801 144.8918 162° South 260 299 23,100  Level Aus ATC (RADAR)
Wed 04:37:55 AM -14.4201 144.9049 162° South 257 296 23,100  Level Aus ATC (RADAR)
Wed 04:38:50 AM -14.4836 144.9239 164° South 257 296 23,100  Level Aus ATC (RADAR)
Wed 04:40:10 AM -14.5746 144.9544 162° South 256 295 23,100  Level Aus ATC (RADAR)
Wed 04:40:30 AM -14.5974 144.9627 161° South 256 295 23,100  Level Aus ATC (RADAR)
Wed 04:41:10 AM -14.6436 144.9767 164° South 259 298 23,100  Level Aus ATC (RADAR)
Wed 04:42:09 AM -14.7125 144.9982 163° South 258 297 23,100  Level Aus ATC (RADAR)
Wed 04:42:39 AM -14.7469 145.0098 162° South 259 298 23,100  Level Aus ATC (RADAR)
Wed 04:43:39 AM -14.8159 145.0317 163° South 258 297 23,100  Level Aus ATC (RADAR)
Wed 04:44:54 AM -14.9020 145.0587 163° South 258 297 23,100  Level Aus ATC (RADAR)
Wed 04:45:44 AM -14.9596 145.0768 163° South 259 298 23,100  Level Aus ATC (RADAR)
Wed 04:46:04 AM -14.9823 145.0852 160° South 257 296 23,100  Level Aus ATC (RADAR)
Wed 04:46:39 AM -15.0227 145.0983 163° South 259 298 23,100  Level Aus ATC (RADAR)
Wed 04:47:24 AM -15.0740 145.1165 161° South 258 297 23,100  Level Aus ATC (RADAR)
Wed 04:47:59 AM -15.1142 145.1291 163° South 257 296 23,100  Level Aus ATC (RADAR)
Wed 04:48:29 AM -15.1486 145.1398 163° South 257 296 23,100  Level Aus ATC (RADAR)
Wed 04:49:09 AM -15.1945 145.1550 162° South 259 298 23,100  Level Aus ATC (RADAR)
Wed 04:49:54 AM -15.2458 145.1714 163° South 257 296 23,100  Level Aus ATC (RADAR)
Wed 04:50:49 AM -15.3093 145.1914 163° South 259 298 23,100  Level Aus ATC (RADAR)
Wed 04:51:24 AM -15.3494 145.2050 162° South 259 298 23,100  Level Aus ATC (RADAR)
Wed 04:52:14 AM -15.4068 145.2237 163° South 259 298 23,100  Level Aus ATC (RADAR)
Wed 04:52:38 AM -15.4355 145.2331 162° South 258 297 23,100  Level Aus ATC (RADAR)
Wed 04:53:18 AM -15.4813 145.2488 162° South 258 297 23,100  Level Aus ATC (RADAR)
Wed 04:53:53 AM -15.5215 145.2615 163° South 258 297 23,100  Level Aus ATC (RADAR)
Wed 04:54:48 AM -15.5846 145.2821 163° South 256 295 23,100  Level Aus ATC (RADAR)
Wed 04:55:18 AM -15.6193 145.2933 163° South 259 298 23,100  Level Aus ATC (RADAR)
Wed 04:55:38 AM -15.6423 145.3007 163° South 259 298 23,100  Level Aus ATC (RADAR)
Wed 04:56:13 AM -15.6827 145.3137 163° South 259 298 23,100  Level Aus ATC (RADAR)
Wed 04:57:03 AM -15.7401 145.3330 162° South 259 298 23,100 -75 Level Aus ATC (RADAR)
Wed 04:57:33 AM -15.7752 145.3441 163° South 263 303 23,000 -1,200 Descending Aus ATC (RADAR)
Wed 04:58:08 AM -15.8205 145.3592 162° South 291 335 21,800 -1,920 Descending Aus ATC (RADAR)
Wed 04:58:48 AM -15.8759 145.3768 163° South 312 359 20,600 -1,650 Descending Aus ATC (RADAR)
Wed 04:59:28 AM -15.9313 145.3948 163° South 314 361 19,600 -1,642 Descending Aus ATC (RADAR)
Wed 05:00:23 AM -16.0060 145.4189 163° South 306 352 18,000 -1,703 Descending Aus ATC (RADAR)
Wed 05:00:42 AM -16.0329 145.4269 164° South 304 350 17,500 -1,667 Descending Aus ATC (RADAR)
Wed 05:01:17 AM -16.0785 145.4413 163° South 294 338 16,500 -1,575 Descending Aus ATC (RADAR)
Wed 05:02:02 AM -16.1365 145.4619 161° South 293 337 15,400 -1,575 Descending Aus ATC (RADAR)
Wed 05:02:37 AM -16.1821 145.4775 162° South 297 342 14,400 -1,624 Descending Aus ATC (RADAR)
Wed 05:03:27 AM -16.2474 145.4993 162° South 295 339 13,100 -1,629 Descending Aus ATC (RADAR)
Wed 05:03:47 AM -16.2734 145.5075 163° South 294 338 12,500 -1,527 Descending Aus ATC (RADAR)
Wed 05:04:22 AM -16.3178 145.5224 162° South 288 331 11,700 -1,527 Descending Aus ATC (RADAR)
Wed 05:05:37 AM -16.4104 145.5524 163° South 273 314 9,700 -1,579 Descending Aus ATC (RADAR)
Wed 05:05:57 AM -16.4338 145.5601 163° South 268 308 9,200 -1,440 Descending Aus ATC (RADAR)
Wed 05:06:27 AM -16.4684 145.5714 162° South 263 303 8,500 -1,333 Descending Aus ATC (RADAR)
Wed 05:07:27 AM -16.5361 145.5952 161° South 255 293 7,200 -1,326 Descending Aus ATC (RADAR)
Wed 05:08:02 AM -16.5729 145.6106 158° South 245 282 6,400 -1,412 Descending Aus ATC (RADAR)
Wed 05:08:52 AM -16.6247 145.6342 156° South 244 281 5,200 -1,400 Descending Aus ATC (RADAR)
Wed 05:09:32 AM -16.6663 145.6532 156° South 245 282 4,300 -1,321 Descending Aus ATC (RADAR)
Wed 05:10:41 AM -16.7331 145.6833 157° South 212 244 2,800 -1,213 Descending Aus ATC (RADAR)
Wed 05:11:06 AM -16.7522 145.6921 156° South 189 217 2,400 -831 Descending Aus ATC (RADAR)
Wed 05:11:46 AM -16.7796 145.7044 157° South 163 188 1,900 -825 Descending Aus ATC (RADAR)
Wed 05:12:26 AM -16.8037 145.7154 156° South 144 166 1,300 -720 Descending Aus ATC (RADAR)
Wed 05:13:01 AM -16.8203 145.7231 156° South 116 133 1,000 -525 Descending Aus ATC (RADAR)
Wed 05:13:46 AM -16.8394 145.7316 157° South 101 116 600 -514 Descending Aus ATC (RADAR)
Wed 05:14:11 AM -16.8499 145.7363 157° South 100 115 400 -500 Descending Aus ATC (RADAR)
Wed 05:14:46 AM -16.8636 145.7428 156° South 91 105 100 -514 Descending Aus ATC (RADAR)
Wed 05:15:11 AM -16.8726 145.7464 159° South 83 96 -240 Descending Aus ATC (RADAR)

Login

Don't have an account? Register now (free) for customized features, flight alerts, and more!